Time;durP1;ratioP1;P1;durP2;ratioP2;P2;SDS_P1;SDS_P2;PMS_P1;PMS_P2;Temp;Humidity;BMP_temperature;BMP_pressure;BME280_temperature;BME280_humidity;BME280_pressure;Samples;Min_cycle;Max_cycle;Signal;HPM_P1;HPM_P2
2023/03/28 00:01:38;;;;;;;6.55;5.95;;;5.60;99.90;;;;;;5015930;28;20033;-73
2023/03/28 00:04:03;;;;;;;6.95;6.20;;;5.60;99.90;;;;;;5017386;28;20022;-73
2023/03/28 00:06:30;;;;;;;7.20;6.47;;;5.60;99.90;;;;;;5015858;28;20029;-73
2023/03/28 00:08:56;;;;;;;7.32;5.50;;;5.50;99.90;;;;;;5017226;28;20044;-73
2023/03/28 00:11:23;;;;;;;7.07;6.10;;;5.40;99.90;;;;;;5015734;28;20105;-73
2023/03/28 00:13:59;;;;;;;7.20;6.50;;;5.40;99.90;;;;;;5017311;28;20034;-73
2023/03/28 00:16:30;;;;;;;8.85;7.25;;;5.30;99.90;;;;;;5015272;28;20564;-73
2023/03/28 00:18:59;;;;;;;10.15;8.27;;;5.30;99.90;;;;;;5016809;28;20088;-73
2023/03/28 00:21:28;;;;;;;11.77;8.80;;;5.30;99.90;;;;;;5015893;28;20497;-73
2023/03/28 00:23:56;;;;;;;9.98;8.48;;;5.20;99.90;;;;;;5015510;28;20034;-73
2023/03/28 00:26:25;;;;;;;13.30;9.85;;;5.20;99.90;;;;;;5016979;28;20505;-73
2023/03/28 00:28:51;;;;;;;9.75;8.18;;;5.20;99.90;;;;;;5015647;28;20489;-73
2023/03/28 00:31:18;;;;;;;10.90;8.65;;;5.10;99.90;;;;;;5017132;28;20034;-73
2023/03/28 00:33:46;;;;;;;10.45;7.90;;;5.20;99.90;;;;;;5016707;28;20030;-74
2023/03/28 00:36:38;;;;;;;9.55;7.50;;;5.10;99.90;;;;;;5017009;28;20026;-74
2023/03/28 00:39:05;;;;;;;9.82;7.75;;;5.10;99.90;;;;;;5016433;28;20121;-73
2023/03/28 00:41:33;;;;;;;8.55;7.68;;;5.00;99.90;;;;;;5016789;28;20034;-73
2023/03/28 00:44:00;;;;;;;10.52;8.50;;;5.00;99.90;;;;;;5015263;28;20105;-73
2023/03/28 00:46:34;;;;;;;12.27;8.45;;;4.90;99.90;;;;;;5016727;28;20022;-73
2023/03/28 00:49:14;;;;;;;10.15;9.02;;;4.90;99.90;;;;;;5015393;28;20030;-74
2023/03/28 00:51:49;;;;;;;13.68;8.18;;;4.90;99.90;;;;;;5016575;28;20101;-74
2023/03/28 00:54:17;;;;;;;12.45;8.38;;;4.90;99.90;;;;;;5015562;28;20112;-74
2023/03/28 00:56:47;;;;;;;10.52;8.40;;;4.90;99.90;;;;;;5016982;28;20068;-74
2023/03/28 00:59:17;;;;;;;9.90;8.50;;;4.80;99.90;;;;;;5019392;28;20030;-74
2023/03/28 01:01:44;;;;;;;10.48;8.45;;;4.80;99.90;;;;;;5020372;28;20025;-73
2023/03/28 01:04:09;;;;;;;11.80;8.43;;;4.90;99.90;;;;;;5019161;28;20033;-74
2023/03/28 01:06:46;;;;;;;10.45;8.75;;;4.90;99.90;;;;;;5018990;28;20481;-74
2023/03/28 01:09:15;;;;;;;13.25;9.20;;;4.80;99.90;;;;;;5020227;28;20057;-74
2023/03/28 01:11:42;;;;;;;13.10;8.93;;;4.80;99.90;;;;;;5018754;28;20025;-73
2023/03/28 01:14:12;;;;;;;12.20;8.80;;;4.90;99.90;;;;;;5018859;28;20080;-74
2023/03/28 01:16:40;;;;;;;10.30;8.45;;;4.90;99.90;;;;;;5019262;28;20033;-74
2023/03/28 01:19:20;;;;;;;8.48;7.57;;;4.90;99.90;;;;;;5018773;28;20107;-74
2023/03/28 01:22:20;;;;;;;12.80;9.45;;;4.90;99.90;;;;;;5020385;28;20025;-76
2023/03/28 01:25:11;;;;;;;9.30;8.32;;;4.90;99.90;;;;;;5009064;28;20061;-74
2023/03/28 01:27:45;;;;;;;12.35;8.68;;;4.90;99.90;;;;;;5018487;28;20079;-73
2023/03/28 01:30:20;;;;;;;12.05;9.27;;;4.90;99.90;;;;;;5019962;28;20387;-74
2023/03/28 01:33:08;;;;;;;9.98;8.40;;;4.90;99.90;;;;;;5019808;28;20100;-74
2023/03/28 01:35:40;;;;;;;11.52;8.98;;;4.80;99.90;;;;;;5019994;28;20406;-75
2023/03/28 01:38:05;;;;;;;12.60;8.45;;;4.80;99.90;;;;;;5020088;28;20113;-76
2023/03/28 01:41:08;;;;;;;9.35;8.00;;;4.80;99.90;;;;;;5019541;28;20053;-73
2023/03/28 01:43:52;;;;;;;13.00;9.13;;;4.70;99.90;;;;;;5019368;28;20029;-73
2023/03/28 01:46:26;;;;;;;10.05;8.35;;;4.70;99.90;;;;;;5019838;28;20026;-73
2023/03/28 01:49:29;;;;;;;13.88;9.07;;;4.70;99.90;;;;;;5019415;28;20869;-73
2023/03/28 01:52:07;;;;;;;10.57;8.88;;;4.70;99.90;;;;;;5019422;28;20050;-73
2023/03/28 01:55:02;;;;;;;10.23;8.65;;;4.60;99.90;;;;;;5019527;28;20022;-73
2023/03/28 01:57:40;;;;;;;9.63;8.63;;;4.60;99.90;;;;;;5010377;28;20029;-73
2023/03/28 02:00:18;;;;;;;11.38;9.45;;;4.60;99.90;;;;;;5018083;28;20032;-73
2023/03/28 02:03:10;;;;;;;12.60;9.38;;;4.60;99.90;;;;;;5019366;28;20109;-73
2023/03/28 02:05:37;;;;;;;12.07;10.43;;;4.50;99.90;;;;;;5018158;28;20037;-74
2023/03/28 02:08:07;;;;;;;11.48;10.27;;;4.50;99.90;;;;;;5017658;28;20029;-74
2023/03/28 02:10:35;;;;;;;11.85;10.30;;;4.50;99.90;;;;;;5019054;28;20018;-73
2023/03/28 02:13:11;;;;;;;15.30;9.93;;;4.40;99.90;;;;;;5019256;28;20549;-73
2023/03/28 02:15:38;;;;;;;11.57;10.38;;;4.40;99.90;;;;;;5019502;28;20509;-73
2023/03/28 02:18:11;;;;;;;15.05;10.02;;;4.40;99.90;;;;;;5019073;28;20034;-73
2023/03/28 02:20:37;;;;;;;11.77;10.23;;;4.30;99.90;;;;;;5018810;28;20099;-73
2023/03/28 02:23:09;;;;;;;10.70;9.45;;;4.30;99.90;;;;;;5017822;28;20265;-74
2023/03/28 02:25:36;;;;;;;13.38;9.13;;;4.20;99.90;;;;;;5018725;28;20441;-73
2023/03/28 02:28:05;;;;;;;10.32;9.13;;;4.10;99.90;;;;;;5018932;28;20026;-73
2023/03/28 02:30:32;;;;;;;14.63;9.20;;;4.10;99.90;;;;;;5018840;28;20485;-73
2023/03/28 02:32:59;;;;;;;11.02;9.93;;;4.00;99.90;;;;;;5005264;28;20029;-73
2023/03/28 02:35:44;;;;;;;12.25;9.52;;;3.90;99.90;;;;;;5018715;28;20033;-74
2023/03/28 02:38:36;;;;;;;11.02;9.93;;;3.80;99.90;;;;;;5018967;28;20049;-74
2023/03/28 02:41:20;;;;;;;11.23;10.10;;;3.80;99.90;;;;;;5018443;28;20026;-74
2023/03/28 02:44:06;;;;;;;10.38;8.70;;;3.70;99.90;;;;;;5015050;28;20080;-74
2023/03/28 02:47:14;;;;;;;10.30;9.07;;;3.60;99.90;;;;;;5013025;28;20084;-74
2023/03/28 02:50:01;;;;;;;10.32;9.23;;;3.60;99.90;;;;;;4977190;28;20037;-73
2023/03/28 02:52:50;;;;;;;10.50;9.48;;;3.50;99.90;;;;;;5042603;28;20038;-74
2023/03/28 02:55:19;;;;;;;11.13;9.05;;;3.50;99.90;;;;;;5014788;28;20482;-73
2023/03/28 02:57:51;;;;;;;11.30;9.93;;;3.50;99.90;;;;;;5016917;28;20040;-73
2023/03/28 03:00:18;;;;;;;11.43;9.85;;;3.40;99.90;;;;;;5016683;28;20080;-73
2023/03/28 03:02:48;;;;;;;15.52;10.77;;;3.50;99.90;;;;;;5018049;28;20046;-74
2023/03/28 03:05:14;;;;;;;11.77;9.32;;;3.50;99.90;;;;;;5017422;28;20038;-74
2023/03/28 03:07:41;;;;;;;10.63;9.57;;;3.40;99.90;;;;;;5016340;28;20564;-74
2023/03/28 03:10:08;;;;;;;10.45;9.35;;;3.40;99.90;;;;;;5016795;28;20026;-74
2023/03/28 03:12:35;;;;;;;13.60;9.43;;;3.40;99.90;;;;;;5018172;28;20041;-74
2023/03/28 03:15:02;;;;;;;10.55;9.50;;;3.40;99.90;;;;;;5018074;28;20030;-74
2023/03/28 03:17:28;;;;;;;12.73;10.15;;;3.40;99.90;;;;;;5017903;28;20022;-74
2023/03/28 03:19:58;;;;;;;11.10;9.90;;;3.40;99.90;;;;;;5016059;28;20057;-73
2023/03/28 03:22:24;;;;;;;14.73;9.88;;;3.30;99.90;;;;;;5016344;28;20018;-73
2023/03/28 03:24:50;;;;;;;11.05;9.82;;;3.40;99.90;;;;;;5017830;28;20030;-74
2023/03/28 03:27:19;;;;;;;11.35;10.25;;;3.30;99.90;;;;;;5016715;28;20032;-74
2023/03/28 03:29:47;;;;;;;13.13;10.23;;;3.30;99.90;;;;;;5017960;28;20072;-74
2023/03/28 03:32:13;;;;;;;12.70;10.40;;;3.30;99.90;;;;;;5016282;28;20052;-73
2023/03/28 03:34:40;;;;;;;12.85;10.18;;;3.20;99.90;;;;;;5017782;28;20467;-73
2023/03/28 03:37:07;;;;;;;11.50;10.30;;;3.20;99.90;;;;;;5017678;28;20026;-73
2023/03/28 03:39:35;;;;;;;12.07;10.77;;;3.20;99.90;;;;;;5016361;28;20033;-73
2023/03/28 03:42:01;;;;;;;12.18;10.18;;;3.20;99.90;;;;;;5016333;28;20478;-73
2023/03/28 03:44:27;;;;;;;15.25;10.30;;;3.20;99.90;;;;;;5017456;28;20478;-73
2023/03/28 03:46:52;;;;;;;13.00;11.05;;;3.10;99.90;;;;;;5016045;28;20048;-73
2023/03/28 03:49:18;;;;;;;13.05;10.77;;;3.10;99.90;;;;;;5016346;28;20041;-73
2023/03/28 03:51:44;;;;;;;13.07;11.20;;;3.10;99.90;;;;;;5016182;28;20025;-73
2023/03/28 03:54:10;;;;;;;14.93;11.57;;;3.10;99.90;;;;;;5017567;28;20030;-73
2023/03/28 03:56:36;;;;;;;14.50;11.20;;;3.10;99.90;;;;;;5012081;28;20056;-73
2023/03/28 03:59:02;;;;;;;14.20;10.52;;;3.10;99.90;;;;;;5017481;28;20026;-73
2023/03/28 04:01:31;;;;;;;14.75;11.20;;;3.00;99.90;;;;;;5017229;28;20101;-73
2023/03/28 04:03:57;;;;;;;18.92;12.90;;;3.00;99.90;;;;;;5017216;28;20030;-73
2023/03/28 04:06:23;;;;;;;10.93;9.82;;;3.00;99.90;;;;;;5017233;28;20037;-73
2023/03/28 04:08:50;;;;;;;11.40;10.20;;;3.00;99.90;;;;;;5016027;28;20104;-73
2023/03/28 04:11:16;;;;;;;13.40;10.60;;;3.00;99.90;;;;;;5017324;28;20097;-74
2023/03/28 04:13:42;;;;;;;15.30;10.23;;;2.90;99.90;;;;;;5017209;28;20026;-73
2023/03/28 04:16:08;;;;;;;10.95;9.80;;;2.90;99.90;;;;;;5017192;28;20041;-73
2023/03/28 04:18:34;;;;;;;14.98;10.63;;;2.90;99.90;;;;;;5015568;28;20026;-74
2023/03/28 04:21:01;;;;;;;11.50;10.32;;;2.90;99.90;;;;;;5015708;28;20045;-73
2023/03/28 04:23:27;;;;;;;11.40;10.20;;;2.80;99.90;;;;;;5017178;28;20026;-73
2023/03/28 04:25:57;;;;;;;11.70;10.50;;;2.80;99.90;;;;;;5016848;28;20022;-74
2023/03/28 04:28:24;;;;;;;12.77;10.37;;;2.80;99.90;;;;;;5015854;28;20049;-73
2023/03/28 04:30:53;;;;;;;12.02;10.73;;;2.70;99.90;;;;;;5017103;28;20367;-73
2023/03/28 04:33:23;;;;;;;12.48;10.32;;;2.70;99.90;;;;;;5020336;28;20068;-73
2023/03/28 04:35:58;;;;;;;;;;;2.80;99.90;;;;;;5021649;28;20029;-73
2023/03/28 04:38:25;;;;;;;13.65;9.48;;;2.70;99.90;;;;;;5020864;28;19905;-73
2023/03/28 04:40:56;;;;;;;15.10;11.45;;;2.70;99.90;;;;;;5020666;28;20034;-73
2023/03/28 04:43:27;;;;;;;13.48;12.07;;;2.70;99.90;;;;;;5021035;28;20032;-73
2023/03/28 04:45:53;;;;;;;11.55;10.48;;;2.70;99.90;;;;;;5021087;28;20022;-73
2023/03/28 04:48:19;;;;;;;11.50;10.40;;;2.70;99.90;;;;;;5020483;28;20101;-73
2023/03/28 04:50:45;;;;;;;10.63;9.68;;;2.60;99.90;;;;;;5020861;28;20060;-73
2023/03/28 04:53:11;;;;;;;10.52;9.52;;;2.60;99.90;;;;;;5020461;28;20026;-73
2023/03/28 04:55:38;;;;;;;11.32;9.55;;;2.60;99.90;;;;;;5019137;28;20033;-73
2023/03/28 04:58:04;;;;;;;12.85;11.65;;;2.50;99.90;;;;;;5020340;28;20026;-73
2023/03/28 05:00:31;;;;;;;11.05;9.82;;;2.50;99.90;;;;;;5019265;28;20065;-73
2023/03/28 05:03:00;;;;;;;11.40;10.20;;;2.50;99.90;;;;;;5020188;28;20079;-73
2023/03/28 05:05:26;;;;;;;11.25;10.15;;;2.50;99.90;;;;;;5019118;28;20037;-73
2023/03/28 05:07:51;;;;;;;11.93;10.70;;;2.60;99.90;;;;;;5020092;28;20025;-74
2023/03/28 05:10:17;;;;;;;15.68;10.43;;;2.60;99.90;;;;;;5020301;28;20018;-73
2023/03/28 05:12:43;;;;;;;15.75;9.88;;;2.50;99.90;;;;;;5018910;28;20026;-73
2023/03/28 05:15:09;;;;;;;11.10;9.95;;;2.50;99.90;;;;;;5020392;28;20057;-73
2023/03/28 05:17:35;;;;;;;12.50;10.82;;;2.50;99.90;;;;;;5020007;28;20029;-73
2023/03/28 05:20:00;;;;;;;11.05;9.45;;;2.60;99.90;;;;;;5019966;28;20054;-73
2023/03/28 05:22:26;;;;;;;12.18;10.18;;;2.50;99.90;;;;;;5019832;28;20029;-73
2023/03/28 05:24:52;;;;;;;15.68;11.75;;;2.50;99.90;;;;;;5019928;28;20331;-73
2023/03/28 05:27:18;;;;;;;11.15;10.15;;;2.50;99.90;;;;;;5051623;28;20045;-73
2023/03/28 05:29:43;;;;;;;10.52;9.52;;;2.50;99.90;;;;;;5018864;28;20022;-73
2023/03/28 05:32:11;;;;;;;12.80;11.25;;;2.50;99.90;;;;;;5019793;28;20104;-73
2023/03/28 05:34:37;;;;;;;12.50;11.30;;;2.40;99.90;;;;;;5019990;28;20107;-73
2023/03/28 05:37:02;;;;;;;14.20;12.30;;;2.40;99.90;;;;;;5018568;28;20034;-73
2023/03/28 05:39:28;;;;;;;12.07;10.88;;;2.40;99.90;;;;;;5018542;28;20029;-73
2023/03/28 05:41:54;;;;;;;12.50;10.68;;;2.40;99.90;;;;;;5019687;28;20048;-73
2023/03/28 05:44:19;;;;;;;12.30;9.32;;;2.40;99.90;;;;;;5017755;28;20026;-73
2023/03/28 05:46:45;;;;;;;10.07;9.02;;;2.50;99.90;;;;;;5019349;28;20088;-73
2023/03/28 05:49:11;;;;;;;10.70;9.02;;;2.40;99.90;;;;;;5018421;28;20553;-74
2023/03/28 05:51:37;;;;;;;12.82;10.38;;;2.40;99.90;;;;;;5018343;28;20018;-74
2023/03/28 05:54:03;;;;;;;17.95;10.45;;;2.40;99.90;;;;;;5019877;28;20064;-74
2023/03/28 05:56:31;;;;;;;11.38;9.77;;;2.40;99.90;;;;;;5017912;28;20026;-73
2023/03/28 05:58:57;;;;;;;11.40;10.27;;;2.40;99.90;;;;;;5019525;28;20100;-73
2023/03/28 06:01:27;;;;;;;11.77;10.55;;;2.40;99.90;;;;;;5019506;28;20058;-74
2023/03/28 06:03:54;;;;;;;11.82;10.63;;;2.40;99.90;;;;;;5019379;28;20029;-74
2023/03/28 06:06:20;;;;;;;11.20;10.10;;;2.50;99.90;;;;;;5019477;28;20394;-74
2023/03/28 06:08:45;;;;;;;17.00;11.18;;;2.60;99.90;;;;;;5019187;28;20052;-74
2023/03/28 06:11:11;;;;;;;11.35;9.90;;;2.60;99.90;;;;;;5019143;28;20437;-74
2023/03/28 06:13:37;;;;;;;13.10;10.25;;;2.60;99.90;;;;;;5019223;28;20025;-74
2023/03/28 06:16:03;;;;;;;11.93;9.70;;;2.70;99.90;;;;;;5019190;28;20033;-75
2023/03/28 06:18:29;;;;;;;14.82;10.35;;;2.80;99.90;;;;;;5016537;28;20045;-75
2023/03/28 06:20:55;;;;;;;13.25;10.75;;;2.80;99.90;;;;;;5019104;28;20061;-75
2023/03/28 06:23:21;;;;;;;12.65;10.73;;;2.90;99.90;;;;;;5019136;28;20025;-75
2023/03/28 06:25:47;;;;;;;15.05;11.00;;;2.90;99.90;;;;;;5017098;28;20124;-75
2023/03/28 06:28:12;;;;;;;14.07;11.18;;;3.00;99.90;;;;;;5018792;28;20056;-76
2023/03/28 06:30:41;;;;;;;15.10;11.00;;;3.20;99.90;;;;;;5018900;28;20025;-75
2023/03/28 06:33:07;;;;;;;14.60;12.23;;;3.20;99.90;;;;;;5017394;28;20089;-75
2023/03/28 06:35:33;;;;;;;14.85;11.40;;;3.30;99.90;;;;;;5018584;28;20080;-75
2023/03/28 06:37:59;;;;;;;13.30;11.85;;;3.30;99.90;;;;;;5018489;28;20040;-75
2023/03/28 06:40:25;;;;;;;13.43;11.10;;;3.40;99.90;;;;;;5018646;28;20029;-75
2023/03/28 06:42:51;;;;;;;14.45;12.90;;;3.40;99.90;;;;;;5018412;28;20513;-75
2023/03/28 06:45:18;;;;;;;15.38;11.98;;;3.60;99.90;;;;;;5013213;28;20083;-75
2023/03/28 06:47:44;;;;;;;15.85;11.88;;;3.60;99.90;;;;;;5018206;28;20014;-75
2023/03/28 06:50:10;;;;;;;20.42;13.55;;;3.80;99.90;;;;;;5016965;28;20018;-75
2023/03/28 06:52:36;;;;;;;16.02;12.52;;;4.00;99.90;;;;;;5018693;28;20018;-75
2023/03/28 06:55:02;;;;;;;17.35;11.90;;;4.20;99.90;;;;;;5015989;28;20167;-76
2023/03/28 06:57:28;;;;;;;15.20;11.77;;;4.30;99.90;;;;;;5018300;28;20033;-75
2023/03/28 06:59:54;;;;;;;16.92;12.82;;;4.50;99.90;;;;;;5018387;28;20037;-75
2023/03/28 07:02:20;;;;;;;16.40;13.77;;;4.60;99.90;;;;;;5018414;28;20498;-75
2023/03/28 07:04:46;;;;;;;17.75;14.10;;;4.60;99.90;;;;;;5017994;28;20053;-75
2023/03/28 07:07:11;;;;;;;19.50;14.05;;;4.70;99.90;;;;;;5018108;28;20022;-75
2023/03/28 07:09:37;;;;;;;19.65;13.68;;;4.80;99.90;;;;;;5017994;28;20057;-75
2023/03/28 07:12:03;;;;;;;16.40;13.88;;;4.90;99.90;;;;;;5018309;28;20371;-74
2023/03/28 07:14:29;;;;;;;13.85;12.38;;;5.00;99.90;;;;;;5017023;28;20029;-75
2023/03/28 07:16:56;;;;;;;12.60;10.65;;;5.10;99.90;;;;;;5017868;28;20026;-75
2023/03/28 07:19:22;;;;;;;12.60;10.38;;;5.30;99.90;;;;;;5017694;28;20060;-75
2023/03/28 07:21:48;;;;;;;12.77;10.23;;;5.50;99.90;;;;;;5017936;28;20513;-75
2023/03/28 07:24:14;;;;;;;11.77;10.18;;;5.70;99.90;;;;;;5016583;28;20122;-75
2023/03/28 07:26:40;;;;;;;11.45;9.20;;;5.90;99.90;;;;;;5017700;28;20022;-75
2023/03/28 07:29:05;;;;;;;11.38;7.57;;;6.10;99.90;;;;;;5016558;28;20129;-75
2023/03/28 07:31:31;;;;;;;10.35;7.55;;;6.30;99.90;;;;;;5017867;28;20094;-75
2023/03/28 07:33:57;;;;;;;11.52;7.95;;;6.40;99.90;;;;;;5016688;28;20044;-75
2023/03/28 07:36:25;;;;;;;12.25;7.70;;;6.60;99.90;;;;;;5016314;28;20018;-75
2023/03/28 07:38:51;;;;;;;8.88;7.25;;;6.60;99.90;;;;;;5017609;28;20048;-75
2023/03/28 07:41:18;;;;;;;7.93;7.05;;;6.70;99.90;;;;;;5015930;28;20022;-75
2023/03/28 07:43:44;;;;;;;6.95;6.15;;;6.70;99.90;;;;;;5017463;28;20075;-75
2023/03/28 07:46:13;;;;;;;9.75;7.18;;;6.70;99.90;;;;;;5016109;28;20022;-76
2023/03/28 07:48:40;;;;;;;6.75;6.00;;;6.90;99.90;;;;;;5016090;28;20069;-75
2023/03/28 07:51:08;;;;;;;7.07;6.38;;;6.90;99.90;;;;;;5017192;28;20029;-75
2023/03/28 07:53:36;;;;;;;7.70;6.70;;;7.00;99.90;;;;;;5017042;28;20045;-74
2023/03/28 07:56:03;;;;;;;14.18;9.98;;;6.90;99.90;;;;;;5017121;28;20047;-75
2023/03/28 07:58:28;;;;;;;10.10;8.10;;;7.00;99.90;;;;;;5015685;28;20076;-74
2023/03/28 08:00:55;;;;;;;11.27;7.32;;;7.10;99.90;;;;;;5017124;28;20022;-74
2023/03/28 08:03:22;;;;;;;8.30;6.00;;;7.20;99.90;;;;;;5015913;28;20065;-74
2023/03/28 08:05:50;;;;;;;9.20;6.53;;;7.40;99.90;;;;;;5017428;28;20022;-74
2023/03/28 08:08:17;;;;;;;11.52;6.45;;;7.40;99.90;;;;;;5015970;28;20018;-74
2023/03/28 08:10:49;;;;;;;9.32;6.85;;;7.40;99.90;;;;;;5017126;28;20022;-74
2023/03/28 08:13:16;;;;;;;8.38;6.55;;;7.50;99.90;;;;;;5017320;28;20026;-74
2023/03/28 08:15:42;;;;;;;6.95;6.28;;;7.60;99.90;;;;;;5017333;28;21137;-74
2023/03/28 08:18:08;;;;;;;10.63;7.70;;;7.80;99.90;;;;;;5015484;28;20025;-75
2023/03/28 08:20:34;;;;;;;7.32;5.60;;;7.90;99.90;;;;;;5016764;28;20050;-74
2023/03/28 08:23:01;;;;;;;9.30;6.13;;;8.10;99.90;;;;;;5016926;28;20026;-74
2023/03/28 08:25:27;;;;;;;6.90;5.75;;;8.20;99.90;;;;;;5017052;28;20022;-74
2023/03/28 08:27:53;;;;;;;7.10;5.82;;;8.30;99.90;;;;;;5015969;28;20029;-74
2023/03/28 08:30:19;;;;;;;8.05;5.50;;;8.30;99.90;;;;;;5017263;28;20081;-74
2023/03/28 08:32:45;;;;;;;6.78;6.18;;;8.50;99.90;;;;;;5015460;28;20032;-75
2023/03/28 08:35:11;;;;;;;14.98;6.20;;;8.60;99.90;;;;;;5017416;28;20049;-75
2023/03/28 08:37:36;;;;;;;6.53;5.57;;;8.80;99.90;;;;;;5015686;28;20071;-75
2023/03/28 08:40:05;;;;;;;6.65;5.72;;;9.10;99.90;;;;;;5016915;28;20026;-74
2023/03/28 08:42:49;;;;;;;5.65;5.13;;;9.20;99.90;;;;;;5015664;28;20164;-74
2023/03/28 08:45:27;;;;;;;9.00;6.25;;;9.20;99.90;;;;;;5014150;28;20022;-74
2023/03/28 08:47:56;;;;;;;7.60;5.22;;;9.20;99.90;;;;;;5015642;28;20033;-74
2023/03/28 08:50:29;;;;;;;6.93;5.45;;;9.20;99.90;;;;;;5015561;28;20018;-75
2023/03/28 08:52:55;;;;;;;9.23;5.75;;;9.30;99.90;;;;;;5017039;28;20613;-75
2023/03/28 08:55:29;;;;;;;8.77;5.22;;;9.50;99.90;;;;;;5015439;28;20034;-74
2023/03/28 08:57:56;;;;;;;10.90;4.45;;;9.60;99.90;;;;;;5016896;28;20041;-74
2023/03/28 09:00:27;;;;;;;8.77;5.35;;;9.70;99.90;;;;;;5016855;28;20056;-74
2023/03/28 09:02:53;;;;;;;10.35;5.60;;;9.80;99.90;;;;;;5016703;28;20033;-74
2023/03/28 09:05:39;;;;;;;11.52;6.38;;;9.80;99.90;;;;;;5016856;28;20485;-74
2023/03/28 09:08:28;;;;;;;6.00;5.40;;;9.90;99.90;;;;;;5015308;28;20026;-75
2023/03/28 09:11:32;;;;;;;8.32;4.68;;;10.00;99.90;;;;;;5014450;28;20034;-75
2023/03/28 09:14:33;;;;;;;7.53;4.55;;;10.20;99.90;;;;;;5022687;28;20050;-74
2023/03/28 09:17:05;;;;;;;5.22;4.65;;;10.40;99.90;;;;;;5006878;28;20485;-75
2023/03/28 09:19:51;;;;;;;7.88;5.45;;;10.70;99.90;;;;;;5018287;28;20517;-75
2023/03/28 09:22:44;;;;;;;8.52;4.45;;;10.70;99.90;;;;;;5006540;28;20026;-75
2023/03/28 09:25:28;;;;;;;5.63;4.90;;;10.70;99.90;;;;;;5051483;28;20454;-75
2023/03/28 09:27:56;;;;;;;5.57;5.07;;;10.80;99.90;;;;;;5018340;28;20029;-75
2023/03/28 09:30:27;;;;;;;7.60;4.47;;;10.90;99.90;;;;;;5014369;28;20042;-74
2023/03/28 09:32:57;;;;;;;4.72;4.32;;;11.10;99.90;;;;;;5016993;28;20041;-75
2023/03/28 09:35:24;;;;;;;8.77;5.00;;;11.20;99.90;;;;;;5017683;28;20530;-73
2023/03/28 09:37:59;;;;;;;6.47;4.10;;;11.20;99.90;;;;;;5018876;28;20107;-72
2023/03/28 09:40:27;;;;;;;7.78;4.15;;;11.40;99.90;;;;;;5016940;28;20080;-72
2023/03/28 09:43:19;;;;;;;8.57;4.10;;;11.50;99.90;;;;;;5017990;28;20026;-75
2023/03/28 09:45:53;;;;;;;6.57;4.15;;;11.60;99.90;;;;;;5002593;28;20089;-73
2023/03/28 09:48:26;;;;;;;7.18;4.65;;;11.60;99.90;;;;;;5018297;28;20041;-72
2023/03/28 09:50:51;;;;;;;9.02;4.53;;;11.80;99.90;;;;;;5018060;28;20028;-73
2023/03/28 09:53:33;;;;;;;4.63;3.80;;;11.90;99.90;;;;;;5017963;28;20022;-72
2023/03/28 09:56:23;;;;;;;8.98;4.10;;;12.10;99.90;;;;;;5017459;28;20084;-72
2023/03/28 09:58:54;;;;;;;8.27;3.65;;;12.00;99.90;;;;;;5015215;28;20056;-72
2023/03/28 10:01:31;;;;;;;8.05;3.90;;;12.10;99.90;;;;;;5016113;28;20031;-72
2023/03/28 10:03:57;;;;;;;8.77;3.78;;;12.30;99.90;;;;;;5013643;28;20022;-73
2023/03/28 10:06:26;;;;;;;13.38;4.90;;;12.30;99.90;;;;;;5017324;28;20028;-72
2023/03/28 10:09:07;;;;;;;5.25;3.33;;;12.30;99.90;;;;;;5015411;28;20024;-73
2023/03/28 10:12:03;;;;;;;7.20;6.25;;;12.50;99.90;;;;;;5013856;28;20026;-72
2023/03/28 10:14:41;;;;;;;6.80;4.93;;;12.50;99.90;;;;;;5015944;28;20033;-73
2023/03/28 10:17:28;;;;;;;3.88;3.25;;;12.60;99.90;;;;;;5014992;28;20037;-72
2023/03/28 10:20:14;;;;;;;4.90;3.03;;;12.80;99.90;;;;;;5011186;28;20050;-71
2023/03/28 10:22:40;;;;;;;4.60;2.60;;;12.90;99.90;;;;;;5013507;28;20045;-72
2023/03/28 10:25:14;;;;;;;4.55;2.80;;;13.00;99.90;;;;;;5016069;28;20029;-72
2023/03/28 10:27:40;;;;;;;3.47;2.33;;;13.10;99.90;;;;;;5017459;28;20022;-71
2023/03/28 10:30:25;;;;;;;5.97;2.85;;;13.10;99.90;;;;;;5016838;28;20025;-72
2023/03/28 10:33:16;;;;;;;6.65;2.75;;;13.20;99.90;;;;;;5014642;28;20033;-72
2023/03/28 10:35:56;;;;;;;4.25;3.00;;;13.30;99.90;;;;;;5014217;28;20026;-72
2023/03/28 10:38:24;;;;;;;3.77;2.43;;;13.40;99.90;;;;;;5012592;28;20029;-72
2023/03/28 10:41:01;;;;;;;2.78;2.33;;;13.50;99.90;;;;;;5015923;28;20273;-72
2023/03/28 10:43:35;;;;;;;3.97;2.35;;;13.50;99.90;;;;;;5017633;28;20041;-72
2023/03/28 10:46:06;;;;;;;3.65;2.33;;;13.60;99.90;;;;;;5016869;28;20049;-72
2023/03/28 10:48:35;;;;;;;3.95;2.38;;;13.60;99.90;;;;;;5017267;28;20545;-72
2023/03/28 10:51:07;;;;;;;4.75;2.85;;;13.60;99.90;;;;;;5016523;28;20057;-72
2023/03/28 10:53:48;;;;;;;3.50;2.50;;;13.70;99.90;;;;;;5017350;28;20384;-73
2023/03/28 10:56:32;;;;;;;;;;;13.70;99.90;;;;;;5014676;28;20025;-72
2023/03/28 10:59:00;;;;;;;3.25;2.20;;;13.70;99.90;;;;;;5016049;28;20592;-72
2023/03/28 11:01:42;;;;;;;7.28;3.22;;;13.80;99.90;;;;;;5015093;28;20041;-72
2023/03/28 11:04:26;;;;;;;6.53;2.90;;;13.90;99.90;;;;;;5016104;28;20029;-72
2023/03/28 11:07:06;;;;;;;3.25;2.22;;;14.00;99.90;;;;;;5017162;28;20026;-72
2023/03/28 11:09:46;;;;;;;2.78;2.58;;;14.00;99.90;;;;;;5016928;28;20502;-72
2023/03/28 11:12:24;;;;;;;4.23;2.67;;;14.10;99.90;;;;;;5015356;28;20026;-72
2023/03/28 11:15:10;;;;;;;7.03;2.33;;;14.20;99.90;;;;;;5015265;28;20181;-72
2023/03/28 11:17:55;;;;;;;6.45;2.20;;;14.30;99.90;;;;;;5016675;28;20054;-72
2023/03/28 11:20:45;;;;;;;2.88;2.15;;;14.30;99.90;;;;;;5016009;28;20046;-72
2023/03/28 11:23:21;;;;;;;2.90;2.30;;;14.30;99.90;;;;;;5013688;28;20068;-71
2023/03/28 11:25:56;;;;;;;4.85;2.42;;;14.40;99.90;;;;;;5014601;28;20030;-73
2023/03/28 11:28:30;;;;;;;2.25;2.05;;;14.40;99.90;;;;;;5016698;28;20112;-72
2023/03/28 11:30:59;;;;;;;4.38;1.98;;;14.50;99.90;;;;;;5016242;28;20050;-72
2023/03/28 11:34:02;;;;;;;2.88;1.80;;;14.60;99.90;;;;;;5016680;28;20018;-72
2023/03/28 11:36:38;;;;;;;2.83;1.90;;;14.60;99.90;;;;;;5015360;28;20026;-74
2023/03/28 11:39:21;;;;;;;3.53;1.88;;;14.70;99.90;;;;;;5016480;28;20025;-74
2023/03/28 11:41:49;;;;;;;2.97;2.00;;;14.80;99.90;;;;;;5013185;28;20025;-74
2023/03/28 11:44:40;;;;;;;9.18;2.75;;;14.90;99.90;;;;;;5016590;28;20042;-74
2023/03/28 11:47:21;;;;;;;3.85;2.13;;;15.00;99.90;;;;;;5013931;28;20045;-74
2023/03/28 11:49:52;;;;;;;;;;;15.00;99.90;;;;;;5015798;28;20025;-73
2023/03/28 11:52:30;;;;;;;8.43;2.15;;;15.10;99.90;;;;;;5015251;28;19912;-74
2023/03/28 11:55:16;;;;;;;3.13;1.90;;;15.20;99.90;;;;;;5016122;28;20032;-74
2023/03/28 11:58:00;;;;;;;2.05;1.80;;;15.30;99.90;;;;;;5007966;28;20069;-74
2023/03/28 12:00:37;;;;;;;2.70;2.00;;;15.30;99.90;;;;;;5017593;28;20025;-74
2023/03/28 12:03:22;;;;;;;2.17;1.70;;;15.40;99.90;;;;;;5015657;28;20033;-74
2023/03/28 12:05:59;;;;;;;1.90;1.38;;;15.50;99.90;;;;;;5010063;28;20035;-75
2023/03/28 12:08:37;;;;;;;3.15;1.63;;;15.60;99.90;;;;;;5011949;28;20026;-74
2023/03/28 12:11:07;;;;;;;2.78;2.05;;;15.60;99.90;;;;;;5015194;28;20094;-74
2023/03/28 12:13:47;;;;;;;2.30;1.60;;;15.70;99.10;;;;;;5015977;28;20072;-74
2023/03/28 12:16:46;;;;;;;4.95;1.70;;;15.80;99.20;;;;;;5012074;28;20026;-74
2023/03/28 12:19:17;;;;;;;2.08;1.60;;;15.90;99.70;;;;;;5003825;28;20085;-74
2023/03/28 12:21:48;;;;;;;3.38;1.65;;;16.00;98.20;;;;;;5015482;28;20038;-74
2023/03/28 12:24:23;;;;;;;3.85;1.90;;;16.10;98.40;;;;;;5012396;28;20061;-74
2023/03/28 12:26:52;;;;;;;2.33;1.63;;;16.20;96.60;;;;;;5013896;28;20070;-74
2023/03/28 12:29:26;;;;;;;1.95;1.60;;;16.30;97.40;;;;;;5015895;28;20028;-74
2023/03/28 12:32:20;;;;;;;2.33;1.60;;;16.30;98.20;;;;;;5013850;28;20569;-75
2023/03/28 12:34:57;;;;;;;2.85;1.83;;;16.30;97.90;;;;;;4996893;28;20038;-74
2023/03/28 12:37:32;;;;;;;4.47;1.50;;;16.50;96.20;;;;;;5016279;28;20030;-74
2023/03/28 12:40:12;;;;;;;4.15;1.67;;;16.60;97.00;;;;;;5015549;28;20030;-74
2023/03/28 12:42:40;;;;;;;;;;;16.80;96.90;;;;;;5017276;28;20095;-75
2023/03/28 12:45:12;;;;;;;2.33;1.55;;;16.80;95.10;;;;;;5016798;28;19932;-74
2023/03/28 12:47:42;;;;;;;1.90;1.30;;;16.80;94.60;;;;;;5016864;28;20134;-74
2023/03/28 12:50:35;;;;;;;4.68;1.52;;;17.00;93.50;;;;;;5017041;28;20026;-74
2023/03/28 12:53:01;;;;;;;2.60;1.55;;;17.00;92.80;;;;;;5010877;28;20425;-72
2023/03/28 12:55:27;;;;;;;2.90;1.42;;;17.00;93.30;;;;;;5020307;28;20025;-72
2023/03/28 12:58:10;;;;;;;2.38;1.55;;;17.00;91.60;;;;;;5019227;28;20030;-72
2023/03/28 13:00:46;;;;;;;4.03;1.52;;;17.00;91.70;;;;;;5019345;28;20033;-71
2023/03/28 13:03:25;;;;;;;2.28;1.40;;;17.00;92.20;;;;;;5017262;28;20537;-72
2023/03/28 13:06:19;;;;;;;1.35;1.25;;;17.00;90.00;;;;;;5020711;28;20026;-72
2023/03/28 13:08:47;;;;;;;1.52;1.42;;;17.10;92.70;;;;;;5020481;28;20019;-72
2023/03/28 13:11:27;;;;;;;2.38;1.70;;;17.30;91.50;;;;;;5020361;28;20033;-71